Mason City Municipal Airport
KMCW : now visible

Airfield :











YOU CAN JOIN US ON...

 
LOGIN :

Register | Disclaimer

   EN    FR    IT 

 









Legend :    VFR   Marginal VFR   IFR   Intensive IFR   Very Intensive IFR
Visi :
Ceiling :
>= 8 km
>= 3000ft
5 to 8 km
1000 to 3000 ft
1500m to 5 km
500 to 1000 ft
800 to 1500m
200 to 500 ft
< 800m
< 200 ft
Symbols :   Thunderstorms  Fog  Heavy snow  Heavy precipitations  Wind > 20 kt






- Airport Elevation : 1213 ft


KMCW - Mason City Municipal

CURRENT METAR :
  • 081653Z AUTO 34009KT 8SM -RA FEW050 OVC070 10/07 A2986 RMK AO2 RAB00 SLP111 P0012 T01000072

EXPIRED METARs :
  • 081553Z AUTO 35006KT 10SM OVC065 11/08 A2985 RMK AO2 LTG DSNT NW RAE21 SLP107 P0004 T01110078
  • 081453Z AUTO 03008KT 9SM -RA BKN060 OVC080 11/07 A2983 RMK AO2 RAE08B49 SLP099 P0001 60004 T01060067 50024

TAF KMCW
Valid from the 08 at 12:00 until the 09 at 12:00 UTC


081157Z 0812/0912 23003KT 6SM BR FEW200
FM081400 32011G18KT P6SM VCSH BKN080 OVC120
FM081700 34017G28KT P6SM -SHRA BKN050 OVC090
FM082100 32018G30KT P6SM SCT080 BKN120
FM090300 30011G17KT P6SM FEW200
FM090800 29015G23KT P6SM FEW250



MET'MAP, your aeronautical weather chart ! - Copyright ORBIFLY December 2007 - Disclaimer

ORBIFLY MET'MAP TEAM :

Programming & Development : Alexandra Zaïnal
Concept & original design : Baudouin d'Aumeries
Assistance for programming : Marc-Olivier Méhu
Technical & hardware support : Manuel Goepfert

Contact : metmap@orbifly.com




SOURCES & CREDITS :

   NOAA       Earth
Advisory